• Join FlightAware (Why Join?)
  • Login
  • US Flag 
04:58AM EDT


 

Airport Tracker/Info


-or-


 

Live Flight TrackerFlight Track Log ✈ SWA168 ✈ 18-Jul-2013 ✈ KDEN - KLAS

Flight Track Log - Related Links

Times and Time Zones

All times are in EDT time to prevent confusion due to time zone crossing. See the SWA168 flight status page for this flight to view local times or setup timezone preferences in your user account.

Time Position Orientation Groundspeed Altitude Reporting Facility
EDT Latitude Longitude Course Direction KTS MPH feet Rate Location/Type
03:11PM 39.9333 -104.7000 333° Northwest 208 239 6,900  Level Denver TRACON
03:12PM 39.9833 -104.7333 333° Northwest 251 289 9,200 2,220 Climbing Denver TRACON
03:13PM 40.0044 -104.7939 294° West 268 308 10,700 2,220 Climbing Denver Center
03:14PM 39.9853 -104.8872 255° West 269 310 13,100 1,920 Climbing Denver Center
03:15PM 39.9650 -105.0008 257° West 301 346 14,700 1,740 Climbing Denver Center
03:16PM 39.9414 -105.1181 255° West 331 381 16,800 1,980 Climbing Denver Center
03:17PM 39.9214 -105.2486 259° West 343 395 18,800 2,040 Climbing Denver Center
03:18PM 39.9044 -105.3728 260° West 348 400 21,100 2,100 Climbing Denver Center
03:19PM 39.8867 -105.5069 260° West 349 402 23,200 1,680 Climbing Denver Center
03:20PM 39.8711 -105.6331 261° West 361 415 24,600 960 Climbing Denver Center
03:21PM 39.8508 -105.7681 259° West 384 442 25,200 660 Climbing Denver Center
03:22PM 39.8094 -105.9058 249° West 408 470 26,000 1,080 Climbing Denver Center
03:23PM 39.7578 -106.0811 249° West 432 497 27,500 1,200 Climbing Denver Center
03:24PM 39.7128 -106.2331 249° West 448 516 28,500 1,020 Climbing Denver Center
03:25PM 39.6717 -106.3672 248° West 458 527 29,700 1,440 Climbing Denver Center
03:26PM 39.6169 -106.5514 249° West 452 520 31,500 1,440 Climbing Denver Center
03:27PM 39.5725 -106.6942 248° West 445 512 32,700 1,080 Climbing Denver Center
03:28PM 39.5228 -106.8639 249° West 451 519 33,800 900 Climbing Denver Center
03:29PM 39.4767 -107.0081 248° West 453 521 34,600 900 Climbing Denver Center
03:30PM 39.4253 -107.1775 249° West 453 521 35,900 600 Climbing Denver Center
03:31PM 39.3731 -107.3433 248° West 446 513 36,000  Climbing Denver Center
03:32PM 39.3208 -107.5103 248° West 447 514 36,000  Level Denver Center
03:34PM 39.2761 -107.6553 248° West 450 518 36,000  Level Denver Center
03:35PM 39.2239 -107.8206 248° West 446 513 36,000  Level Denver Center
03:36PM 39.1786 -107.9647 248° West 448 516 36,000  Level Denver Center
03:37PM 39.1258 -108.1303 248° West 446 513 36,000  Level Denver Center
03:38PM 39.0800 -108.2725 247° West 446 513 36,000  Level Denver Center
03:39PM 39.0322 -108.4200 247° West 465 535 36,000  Level Denver Center
03:40PM 38.9769 -108.5911 247° West 458 527 36,000  Level Denver Center
03:41PM 38.9306 -108.7339 247° West 451 519 36,000  Level Denver Center
03:42PM 38.8761 -108.8992 247° West 450 518 36,000  Level Denver Center
03:43PM 38.8289 -109.0422 247° West 452 520 36,000  Level Denver Center
03:44PM 38.7742 -109.2086 247° West 453 521 36,000  Level Denver Center
03:45PM 38.7258 -109.3503 246° West 453 521 36,000  Level Denver Center
03:46PM 38.6714 -109.5164 247° West 453 521 36,000  Level Denver Center
03:47PM 38.6236 -109.6567 246° West 448 516 36,000  Level Denver Center
03:48PM 38.5678 -109.8206 246° West 449 517 36,000  Level Denver Center
03:49PM 38.5197 -109.9619 247° West 452 520 36,000  Level Denver Center
03:50PM 38.4717 -110.1022 246° West 450 518 36,000  Level Denver Center
03:51PM 38.4161 -110.2650 247° West 449 517 36,000 -420 Level Denver Center
03:52PM 38.3544 -110.3992 240° Southwest 459 528 35,200 -900 Descending Denver Center
03:53PM 38.2803 -110.5608 240° Southwest 473 544 34,200 -1,020 Descending Denver Center
03:54PM 38.2172 -110.6972 240° Southwest 468 539 33,200 -1,020 Descending Denver Center
03:55PM 38.1761 -110.7861 240° Southwest 460 529 32,500 -960 Descending Denver Center
03:55PM 38.1192 -110.8592 225° Southwest 452 520 32,000 -300 Descending Salt Lake Center
03:57PM 38.0175 -110.9603 218° Southwest 454 522 32,000  Level Salt Lake Center
03:58PM 37.9069 -111.0342 208° Southwest 449 517 32,000  Level Salt Lake Center
03:59PM 37.7861 -111.0864 199° South 454 522 32,000  Level Salt Lake Center
04:00PM 37.6425 -111.1511 200° South 455 524 32,000  Level Salt Lake Center
04:01PM 37.5214 -111.2036 199° South 457 526 32,000  Level Salt Lake Center
04:02PM 37.3497 -111.2817 200° South 460 529 32,000  Level Los Angeles Center
04:03PM 37.2328 -111.3478 204° Southwest 464 534 32,000  Level Denver Center
04:04PM 37.1289 -111.4439 216° Southwest 465 535 32,000  Level Denver Center
04:05PM 37.0794 -111.5853 246° West 450 518 32,000  Level Denver Center
04:06PM 37.0425 -111.7733 256° West 454 522 32,000  Level Los Angeles Center
04:07PM 37.0119 -111.9289 256° West 458 527 32,000  Level Los Angeles Center
04:08PM 36.9817 -112.0864 257° West 463 533 32,000  Level Los Angeles Center
04:09PM 36.9450 -112.2767 256° West 467 537 32,000  Level Los Angeles Center
04:10PM 36.9128 -112.4364 256° West 470 541 32,000  Level Los Angeles Center
04:11PM 36.8811 -112.5942 256° West 468 539 32,000  Level Los Angeles Center
04:13PM 36.8503 -112.7536 256° West 470 541 32,000  Level Los Angeles Center
04:14PM 36.8186 -112.9117 256° West 469 540 32,000  Level Los Angeles Center
04:15PM 36.7853 -113.0706 255° West 471 542 32,000  Level Los Angeles Center
04:16PM 36.7433 -113.2250 251° West 471 542 32,000 -180 Level Los Angeles Center
04:17PM 36.6933 -113.4106 251° West 471 542 31,700 -1,740 Descending Los Angeles Center
04:18PM 36.6497 -113.5681 251° West 476 548 28,500 -3,060 Descending Los Angeles Center
04:19PM 36.6072 -113.7203 251° West 473 544 25,400 -3,180 Descending Los Angeles Center
04:20PM 36.5656 -113.8733 251° West 469 540 21,900 -3,180 Descending Los Angeles Center
04:21PM 36.5256 -114.0219 252° West 461 531 18,900 -3,000 Descending Los Angeles Center
04:22PM 36.4856 -114.1617 250° West 440 506 15,800 -2,940 Descending Los Angeles Center
04:23PM 36.4394 -114.3239 251° West 422 486 12,900 -1,920 Descending Los Angeles Center
04:24PM 36.4164 -114.4161 253° West 373 429 12,400 -600 Descending Los Angeles Center
04:25PM 36.3528 -114.4994 227° Southwest 331 381 11,800 -900 Descending Los Angeles Center
04:26PM 36.2692 -114.5661 213° Southwest 308 354 10,300 -1,380 Descending Los Angeles Center
04:27PM 36.2028 -114.6225 214° Southwest 297 342 9,000 -1,200 Descending Los Angeles Center
04:28PM 36.1408 -114.6753 215° Southwest 293 337 8,200 -660 Descending Los Angeles Center
04:29PM 36.1064 -114.7642 244° Southwest 282 325 7,800 -780 Descending Los Angeles Center
04:30PM 36.0744 -114.8442 244° Southwest 263 303 6,700 -1,140 Descending Los Angeles Center
04:31PM 36.0736 -114.9294 269° West 256 295 5,600 -1,080 Descending Los Angeles Center
04:32PM 36.0747 -115.0036 271° West 215 247 4,600 -1,320 Descending Los Angeles Center
04:32PM 36.0750 -115.0358 271° West 166 191 3,600 -1,320 Descending Los Angeles Center
04:33PM 36.0742 -115.0950 269° West 171 197 2,500 -720 Descending Los Angeles Center
04:34PM 36.0739 -115.1456 270° West 168 193 2,200 -300 Descending Los Angeles Center
04:36PM 36.0667 -115.1500 219° Southwest  Level FlightAware Approximate